Terminal Aerodrome Forecast
Issued by NWS

Home | Current Version | Previous Version | Text Only | Print | Product List | Glossary On
Versions: 1 2 3 4 5 6 7 8 9 10 11 12 13
000
FTUS46 KMTR 290500
TAFSJC
TAF
KSJC 290525Z 2906/3006 17007KT P6SM SCT050 BKN100
     FM291030 15006G13KT 4SM -RA BR OVC025
     FM292100 14008KT P6SM VCSH BKN050=

USA.gov is the U.S. government's official web portal to all federal, state and local government web resources and services.